Time;durP1;ratioP1;P1;durP2;ratioP2;P2;SDS_P1;SDS_P2;PMS_P1;PMS_P2;Temp;Humidity;BMP_temperature;BMP_pressure;BME280_temperature;BME280_humidity;BME280_pressure;Samples;Min_cycle;Max_cycle;Signal;HPM_P1;HPM_P2
2022/07/25 00:00:34;;;;;;;4.80;4.27;;;;;;;;;;5002459;28;20238;-70
2022/07/25 00:03:01;;;;;;;10.20;4.40;;;;;;;;;;4960086;28;20229;-70
2022/07/25 00:05:28;;;;;;;6.30;4.47;;;;;;;;;;5009254;28;20227;-70
2022/07/25 00:08:03;;;;;;;5.97;4.40;;;;;;;;;;5014403;28;20356;-70
2022/07/25 00:10:29;;;;;;;8.67;4.33;;;;;;;;;;5024639;28;20222;-70
2022/07/25 00:12:56;;;;;;;7.70;4.53;;;;;;;;;;5034089;28;20283;-70
2022/07/25 00:15:23;;;;;;;9.77;4.43;;;;;;;;;;5020795;28;20594;-70
2022/07/25 00:17:50;;;;;;;5.20;4.40;;;;;;;;;;4987658;28;20227;-70
2022/07/25 00:20:16;;;;;;;12.27;4.63;;;;;;;;;;5015850;28;20242;-70
2022/07/25 00:22:43;;;;;;;7.23;5.40;;;;;;;;;;5023964;28;20226;-70
2022/07/25 00:25:10;;;;;;;5.67;4.17;;;;;;;;;;5033367;28;20300;-70
2022/07/25 00:27:37;;;;;;;6.10;4.27;;;;;;;;;;5020442;28;20702;-70
2022/07/25 00:30:04;;;;;;;5.63;3.90;;;;;;;;;;5014731;28;20238;-70
2022/07/25 00:32:31;;;;;;;7.63;4.07;;;;;;;;;;5002393;28;20225;-70
2022/07/25 00:34:58;;;;;;;4.97;4.47;;;;;;;;;;5025457;28;20690;-70
2022/07/25 00:37:24;;;;;;;7.30;4.57;;;;;;;;;;4860674;28;5091774;-70
2022/07/25 00:39:51;;;;;;;7.73;4.13;;;;;;;;;;5029618;28;20226;-70
2022/07/25 00:42:18;;;;;;;25.63;5.87;;;;;;;;;;4852132;28;5092808;-71
2022/07/25 00:44:45;;;;;;;6.30;4.97;;;;;;;;;;5036807;28;20604;-71
2022/07/25 00:47:12;;;;;;;6.70;4.17;;;;;;;;;;5034739;28;20234;-70
2022/07/25 00:49:39;;;;;;;9.07;4.87;;;;;;;;;;5029432;28;20226;-70
2022/07/25 00:52:05;;;;;;;7.60;4.23;;;;;;;;;;5016974;28;20248;-70
2022/07/25 00:54:32;;;;;;;5.83;4.40;;;;;;;;;;5038782;28;20233;-70
2022/07/25 00:56:59;;;;;;;8.47;4.87;;;;;;;;;;5011303;28;20230;-71
2022/07/25 00:59:27;;;;;;;7.93;5.17;;;;;;;;;;5024327;28;20257;-70
2022/07/25 01:01:54;;;;;;;10.40;4.60;;;;;;;;;;4988588;28;20234;-70
2022/07/25 01:04:21;;;;;;;7.90;4.47;;;;;;;;;;5028725;28;20288;-70
2022/07/25 01:06:48;;;;;;;6.47;4.63;;;;;;;;;;5024080;28;20311;-70
2022/07/25 01:09:15;;;;;;;5.93;4.03;;;;;;;;;;4992111;28;20276;-70
2022/07/25 01:11:42;;;;;;;5.53;4.33;;;;;;;;;;5028663;28;20901;-71
2022/07/25 01:14:08;;;;;;;4.77;3.70;;;;;;;;;;5007499;28;20234;-70
2022/07/25 01:16:53;;;;;;;4.37;3.97;;;;;;;;;;5015279;28;20223;-70
2022/07/25 01:19:20;;;;;;;6.30;3.83;;;;;;;;;;5018424;28;20233;-70
2022/07/25 01:21:46;;;;;;;7.67;4.53;;;;;;;;;;5013163;28;20670;-70
2022/07/25 01:24:13;;;;;;;5.30;4.80;;;;;;;;;;4997002;28;20245;-70
2022/07/25 01:26:40;;;;;;;6.50;4.87;;;;;;;;;;5014982;28;20221;-70
2022/07/25 01:29:07;;;;;;;17.00;4.80;;;;;;;;;;4990416;28;20594;-70
2022/07/25 01:31:33;;;;;;;5.53;4.50;;;;;;;;;;5002536;28;20248;-70
2022/07/25 01:34:00;;;;;;;5.43;3.90;;;;;;;;;;5033901;28;20639;-70
2022/07/25 01:36:27;;;;;;;5.50;4.10;;;;;;;;;;5014162;28;20241;-70
2022/07/25 01:38:54;;;;;;;8.10;3.83;;;;;;;;;;5034411;28;20236;-70
2022/07/25 01:41:20;;;;;;;6.23;3.90;;;;;;;;;;5028551;28;20237;-70
2022/07/25 01:43:48;;;;;;;9.00;4.70;;;;;;;;;;5028654;28;20222;-70
2022/07/25 01:46:15;;;;;;;7.93;4.93;;;;;;;;;;4981820;28;20326;-70
2022/07/25 01:48:42;;;;;;;8.97;5.20;;;;;;;;;;5010937;28;20309;-70
2022/07/25 01:51:12;;;;;;;5.83;4.60;;;;;;;;;;5007891;28;23568;-70
2022/07/25 01:53:38;;;;;;;5.97;4.57;;;;;;;;;;5025960;28;20222;-70
2022/07/25 01:56:08;;;;;;;7.37;4.50;;;;;;;;;;4979698;28;20665;-70
2022/07/25 01:58:37;;;;;;;8.20;4.77;;;;;;;;;;5000988;28;20706;-70
2022/07/25 02:01:04;;;;;;;5.50;4.20;;;;;;;;;;4993637;28;32725;-70
2022/07/25 02:03:31;;;;;;;6.77;4.47;;;;;;;;;;5019010;28;20690;-71
2022/07/25 02:06:02;;;;;;;4.90;3.90;;;;;;;;;;4993567;28;20239;-70
2022/07/25 02:08:29;;;;;;;7.13;4.00;;;;;;;;;;5009095;28;20230;-70
2022/07/25 02:10:56;;;;;;;9.57;4.17;;;;;;;;;;4997937;28;20651;-70
2022/07/25 02:13:23;;;;;;;6.27;4.53;;;;;;;;;;4829304;28;5086935;-70
2022/07/25 02:15:50;;;;;;;7.40;4.87;;;;;;;;;;5004928;28;20310;-70
2022/07/25 02:18:17;;;;;;;7.27;5.00;;;;;;;;;;4990951;28;20237;-70
2022/07/25 02:20:44;;;;;;;7.07;4.30;;;;;;;;;;5004600;28;20637;-70
2022/07/25 02:23:11;;;;;;;7.43;4.00;;;;;;;;;;5021520;28;20271;-70
2022/07/25 02:25:38;;;;;;;6.47;4.20;;;;;;;;;;5010035;28;20219;-70
2022/07/25 02:28:04;;;;;;;8.87;5.13;;;;;;;;;;5000164;28;20242;-70
2022/07/25 02:30:31;;;;;;;7.33;4.57;;;;;;;;;;4801350;28;5090055;-70
2022/07/25 02:32:58;;;;;;;7.90;5.07;;;;;;;;;;5004022;28;20266;-70
2022/07/25 02:35:25;;;;;;;8.17;4.80;;;;;;;;;;4968531;28;20709;-70
2022/07/25 02:37:52;;;;;;;7.13;4.90;;;;;;;;;;4824577;28;5089626;-70
2022/07/25 02:40:19;;;;;;;9.33;5.10;;;;;;;;;;4978676;28;20232;-70
2022/07/25 02:42:46;;;;;;;5.80;5.20;;;;;;;;;;4993127;28;20234;-70
2022/07/25 02:45:12;;;;;;;8.47;5.57;;;;;;;;;;5007157;28;20238;-70
2022/07/25 02:47:39;;;;;;;7.10;4.83;;;;;;;;;;4987363;28;20330;-70
2022/07/25 02:50:06;;;;;;;7.70;5.77;;;;;;;;;;4996154;28;31688;-69
2022/07/25 02:52:33;;;;;;;8.67;5.03;;;;;;;;;;5011538;28;22419;-70
2022/07/25 02:55:00;;;;;;;6.90;5.27;;;;;;;;;;5006367;28;20685;-70
2022/07/25 02:57:34;;;;;;;7.60;5.17;;;;;;;;;;5018056;28;20228;-69
2022/07/25 03:00:02;;;;;;;8.30;4.90;;;;;;;;;;5025092;28;20230;-69
2022/07/25 03:02:28;;;;;;;6.77;4.83;;;;;;;;;;4939509;28;20234;-70
2022/07/25 03:04:55;;;;;;;5.10;4.37;;;;;;;;;;5006432;28;20233;-69
2022/07/25 03:07:40;;;;;;;7.30;4.37;;;;;;;;;;5004740;28;20225;-69
2022/07/25 03:10:07;;;;;;;7.47;4.33;;;;;;;;;;5027242;28;20250;-70
2022/07/25 03:12:37;;;;;;;6.37;4.30;;;;;;;;;;4975609;28;20233;-70
2022/07/25 03:15:04;;;;;;;6.30;4.30;;;;;;;;;;5023552;28;20317;-69
2022/07/25 03:17:31;;;;;;;7.53;4.30;;;;;;;;;;5034845;28;20232;-70
2022/07/25 03:19:58;;;;;;;8.57;3.93;;;;;;;;;;5035558;28;20222;-70
2022/07/25 03:22:24;;;;;;;8.70;4.30;;;;;;;;;;5044923;28;20998;-70
2022/07/25 03:24:52;;;;;;;8.73;4.70;;;;;;;;;;5036954;28;20214;-70
2022/07/25 03:27:18;;;;;;;8.53;5.10;;;;;;;;;;4849314;28;5091274;-69
2022/07/25 03:29:45;;;;;;;7.20;4.73;;;;;;;;;;5013902;28;20231;-70
2022/07/25 03:32:12;;;;;;;11.60;5.10;;;;;;;;;;4831691;28;5090605;-69
2022/07/25 03:34:39;;;;;;;11.13;5.33;;;;;;;;;;5020573;28;20226;-70
2022/07/25 03:37:05;;;;;;;8.03;5.63;;;;;;;;;;4847363;28;5092187;-69
2022/07/25 03:39:32;;;;;;;7.50;5.33;;;;;;;;;;5008689;28;20254;-69
2022/07/25 03:41:59;;;;;;;12.07;5.90;;;;;;;;;;4994827;28;20245;-69
2022/07/25 03:44:26;;;;;;;10.13;5.80;;;;;;;;;;5019745;28;20301;-69
2022/07/25 03:46:52;;;;;;;9.23;6.03;;;;;;;;;;5012980;28;20308;-69
2022/07/25 03:49:19;;;;;;;9.80;5.90;;;;;;;;;;4849765;28;5091705;-69
2022/07/25 03:51:46;;;;;;;11.43;6.30;;;;;;;;;;5015864;28;20239;-69
2022/07/25 03:54:13;;;;;;;14.83;6.30;;;;;;;;;;5006347;28;20241;-69
2022/07/25 03:56:44;;;;;;;7.90;5.97;;;;;;;;;;4821970;28;5092552;-69
2022/07/25 03:59:11;;;;;;;13.07;6.47;;;;;;;;;;4963331;28;20231;-70
2022/07/25 04:01:38;;;;;;;11.23;6.13;;;;;;;;;;4843673;28;5090847;-69
2022/07/25 04:04:05;;;;;;;11.17;5.77;;;;;;;;;;5017446;28;20238;-70
2022/07/25 04:06:32;;;;;;;9.53;6.17;;;;;;;;;;5017295;28;21321;-69
2022/07/25 04:08:59;;;;;;;9.07;6.40;;;;;;;;;;5013023;28;20218;-69
2022/07/25 04:11:27;;;;;;;11.07;6.10;;;;;;;;;;5018618;28;31357;-69
2022/07/25 04:14:11;;;;;;;10.37;6.00;;;;;;;;;;5014774;28;20263;-69
2022/07/25 04:16:38;;;;;;;10.93;6.10;;;;;;;;;;5015544;28;20314;-69
2022/07/25 04:19:06;;;;;;;14.67;5.73;;;;;;;;;;4841444;28;5091010;-69
2022/07/25 04:21:34;;;;;;;7.07;5.77;;;;;;;;;;4999196;28;20988;-69
2022/07/25 04:24:01;;;;;;;9.67;5.97;;;;;;;;;;5043066;28;20313;-71
2022/07/25 04:26:28;;;;;;;9.00;6.10;;;;;;;;;;5017710;28;20310;-69
2022/07/25 04:28:56;;;;;;;10.30;5.90;;;;;;;;;;5023243;28;20226;-69
2022/07/25 04:31:24;;;;;;;8.57;5.60;;;;;;;;;;5034930;28;20237;-70
2022/07/25 04:33:51;;;;;;;11.83;6.00;;;;;;;;;;5005378;28;20238;-70
2022/07/25 04:36:17;;;;;;;9.17;5.27;;;;;;;;;;5018259;28;20328;-69
2022/07/25 04:38:44;;;;;;;8.90;5.53;;;;;;;;;;5019575;28;20234;-69
2022/07/25 04:41:11;;;;;;;10.33;5.27;;;;;;;;;;5022172;28;20222;-69
2022/07/25 04:43:40;;;;;;;7.87;6.10;;;;;;;;;;5023343;28;20222;-69
2022/07/25 04:46:17;;;;;;;10.23;5.60;;;;;;;;;;4979034;28;20226;-69
2022/07/25 04:48:44;;;;;;;11.77;5.87;;;;;;;;;;4979740;28;20235;-69
2022/07/25 04:51:12;;;;;;;7.57;5.77;;;;;;;;;;5007368;28;20261;-70
2022/07/25 04:53:39;;;;;;;13.13;6.27;;;;;;;;;;5025170;28;20279;-70
2022/07/25 04:56:06;;;;;;;10.83;5.00;;;;;;;;;;4985390;28;20231;-70
2022/07/25 04:58:33;;;;;;;10.13;6.10;;;;;;;;;;5010461;28;20592;-70
2022/07/25 05:01:00;;;;;;;8.17;5.93;;;;;;;;;;5019117;28;20240;-70
2022/07/25 05:03:27;;;;;;;8.40;5.13;;;;;;;;;;5030262;28;22445;-69
2022/07/25 05:05:53;;;;;;;8.23;5.50;;;;;;;;;;5021056;28;20244;-70
2022/07/25 05:08:20;;;;;;;8.60;5.67;;;;;;;;;;5023447;28;20229;-71
2022/07/25 05:10:47;;;;;;;8.80;5.87;;;;;;;;;;4995391;28;20311;-70
2022/07/25 05:13:14;;;;;;;8.80;5.80;;;;;;;;;;5021136;28;20233;-70
2022/07/25 05:15:42;;;;;;;8.40;5.03;;;;;;;;;;5012561;28;20610;-69
2022/07/25 05:18:09;;;;;;;7.10;4.60;;;;;;;;;;5016325;28;20269;-69
2022/07/25 05:20:35;;;;;;;8.70;5.00;;;;;;;;;;5017360;28;20229;-70
2022/07/25 05:23:02;;;;;;;7.40;4.47;;;;;;;;;;5024524;28;20234;-70
2022/07/25 05:25:29;;;;;;;7.03;4.40;;;;;;;;;;5010996;28;20222;-70
2022/07/25 05:27:57;;;;;;;7.53;4.60;;;;;;;;;;5020944;28;20226;-70
2022/07/25 05:30:24;;;;;;;10.07;5.13;;;;;;;;;;4940656;28;20321;-70
2022/07/25 05:32:53;;;;;;;6.50;4.63;;;;;;;;;;5006485;28;20754;-72
2022/07/25 05:35:20;;;;;;;5.93;4.67;;;;;;;;;;4997466;28;20243;-70
2022/07/25 05:37:47;;;;;;;5.40;4.30;;;;;;;;;;4995907;28;20281;-72
2022/07/25 05:40:13;;;;;;;5.77;4.43;;;;;;;;;;5003314;28;20714;-70
2022/07/25 05:42:40;;;;;;;5.33;4.20;;;;;;;;;;4776080;28;5091885;-71
2022/07/25 05:45:07;;;;;;;9.40;4.17;;;;;;;;;;4990965;28;24865;-70
2022/07/25 05:47:34;;;;;;;5.23;4.40;;;;;;;;;;4973944;28;24293;-71
2022/07/25 05:50:01;;;;;;;5.07;3.97;;;;;;;;;;4925235;28;20726;-73
2022/07/25 05:52:28;;;;;;;7.77;4.03;;;;;;;;;;4980437;28;20242;-72
2022/07/25 05:54:55;;;;;;;7.23;4.27;;;;;;;;;;4973233;28;20337;-72
2022/07/25 05:57:22;;;;;;;8.37;4.23;;;;;;;;;;4997932;28;20230;-72
2022/07/25 05:59:49;;;;;;;6.37;3.90;;;;;;;;;;5000463;28;20222;-71
2022/07/25 06:02:17;;;;;;;7.37;3.80;;;;;;;;;;4735988;28;5094874;-73
2022/07/25 06:04:44;;;;;;;6.30;3.83;;;;;;;;;;5002373;28;23510;-74
2022/07/25 06:07:11;;;;;;;4.17;3.37;;;;;;;;;;4956687;28;20230;-70
2022/07/25 06:09:42;;;;;;;5.97;3.57;;;;;;;;;;4980179;28;20634;-68
2022/07/25 06:12:09;;;;;;;5.13;3.60;;;;;;;;;;5000976;28;20246;-68
2022/07/25 06:14:37;;;;;;;7.37;3.60;;;;;;;;;;5000047;28;20227;-68
2022/07/25 06:17:04;;;;;;;3.53;3.20;;;;;;;;;;5003109;28;20241;-67
2022/07/25 06:19:30;;;;;;;4.63;3.30;;;;;;;;;;5005895;28;23144;-68
2022/07/25 06:21:57;;;;;;;4.77;3.70;;;;;;;;;;5005191;28;20782;-67
2022/07/25 06:24:24;;;;;;;4.00;3.30;;;;;;;;;;4998653;28;20222;-68
2022/07/25 06:26:51;;;;;;;4.87;3.20;;;;;;;;;;4998020;28;20242;-68
2022/07/25 06:29:18;;;;;;;3.60;3.03;;;;;;;;;;4990255;28;34207;-68
2022/07/25 06:31:45;;;;;;;4.07;3.00;;;;;;;;;;5002131;28;20261;-68
2022/07/25 06:34:14;;;;;;;4.33;3.03;;;;;;;;;;4994875;28;20238;-73
2022/07/25 06:36:56;;;;;;;3.40;3.00;;;;;;;;;;4554692;28;5092117;-71
2022/07/25 06:39:27;;;;;;;4.20;3.20;;;;;;;;;;4675883;28;5094307;-71
2022/07/25 06:41:58;;;;;;;3.50;3.20;;;;;;;;;;4905367;28;20951;-72
2022/07/25 06:44:35;;;;;;;4.50;3.40;;;;;;;;;;4911886;28;214268;-74
2022/07/25 06:47:02;;;;;;;7.87;3.20;;;;;;;;;;4912266;28;244717;-73
2022/07/25 06:49:30;;;;;;;4.07;3.17;;;;;;;;;;4977121;28;229373;-69
2022/07/25 06:51:57;;;;;;;5.40;3.13;;;;;;;;;;4987872;28;20277;-72
2022/07/25 06:54:24;;;;;;;2.90;2.63;;;;;;;;;;4971761;28;20981;-70
2022/07/25 06:56:51;;;;;;;3.00;2.70;;;;;;;;;;4986358;28;20218;-71
2022/07/25 06:59:17;;;;;;;4.93;2.90;;;;;;;;;;4983130;28;217062;-74
2022/07/25 07:02:03;;;;;;;4.40;2.53;;;;;;;;;;4949096;28;232859;-73
2022/07/25 07:04:30;;;;;;;3.97;2.40;;;;;;;;;;4991108;28;20234;-72
2022/07/25 07:06:56;;;;;;;2.60;2.30;;;;;;;;;;4986942;28;20226;-73
2022/07/25 07:09:23;;;;;;;3.47;2.30;;;;;;;;;;4951621;28;20282;-71
2022/07/25 07:11:50;;;;;;;3.77;2.47;;;;;;;;;;4961195;28;20280;-72
2022/07/25 07:14:17;;;;;;;3.30;2.27;;;;;;;;;;4967710;28;20234;-72
2022/07/25 07:16:44;;;;;;;5.43;2.70;;;;;;;;;;4792396;28;5091830;-72
2022/07/25 07:19:13;;;;;;;2.63;2.43;;;;;;;;;;4971833;28;20227;-69
2022/07/25 07:21:41;;;;;;;4.57;2.23;;;;;;;;;;5003483;28;20234;-68
2022/07/25 07:24:11;;;;;;;4.57;2.40;;;;;;;;;;4952745;28;20237;-69
2022/07/25 07:26:51;;;;;;;3.03;2.07;;;;;;;;;;4991388;28;20225;-68
2022/07/25 07:29:17;;;;;;;2.47;2.10;;;;;;;;;;4986007;28;20246;-69
2022/07/25 07:31:46;;;;;;;3.20;2.07;;;;;;;;;;4637044;28;5091294;-69
2022/07/25 07:34:26;;;;;;;3.87;2.30;;;;;;;;;;4866485;28;218135;-67
2022/07/25 07:36:53;;;;;;;5.40;2.30;;;;;;;;;;4990817;28;20575;-68
2022/07/25 07:39:21;;;;;;;5.93;2.30;;;;;;;;;;5001969;28;20582;-71
2022/07/25 07:41:48;;;;;;;4.10;2.10;;;;;;;;;;4981158;28;20380;-73
2022/07/25 07:44:15;;;;;;;3.90;2.23;;;;;;;;;;4988547;28;20329;-70
2022/07/25 07:46:42;;;;;;;3.00;2.50;;;;;;;;;;4934366;28;214290;-68
2022/07/25 07:49:13;;;;;;;4.10;2.00;;;;;;;;;;4980615;28;20306;-71
2022/07/25 07:51:57;;;;;;;2.60;2.23;;;;;;;;;;4882282;28;216173;-70
2022/07/25 07:57:13;;;;;;;3.80;2.53;;;;;;;;;;4943134;28;577984;-70
2022/07/25 07:59:41;;;;;;;3.57;1.87;;;;;;;;;;4905023;28;221280;-70
2022/07/25 08:02:08;;;;;;;3.53;2.10;;;;;;;;;;4976644;28;23993;-70
2022/07/25 08:04:35;;;;;;;3.63;2.23;;;;;;;;;;4983567;28;20307;-70
2022/07/25 08:07:02;;;;;;;3.83;2.23;;;;;;;;;;4988787;28;20318;-69
2022/07/25 08:09:29;;;;;;;4.97;2.50;;;;;;;;;;4986514;28;20291;-69
2022/07/25 08:11:58;;;;;;;3.00;2.40;;;;;;;;;;4973401;28;215290;-74
2022/07/25 08:14:25;;;;;;;3.80;2.40;;;;;;;;;;4967480;28;20369;-72
2022/07/25 08:16:52;;;;;;;4.07;2.37;;;;;;;;;;4958879;28;218468;-72
2022/07/25 08:19:19;;;;;;;3.00;2.17;;;;;;;;;;4947982;28;254113;-72
2022/07/25 08:21:46;;;;;;;3.33;2.40;;;;;;;;;;4945178;28;214929;-73
2022/07/25 08:24:14;;;;;;;5.20;2.27;;;;;;;;;;4957874;28;20441;-73
2022/07/25 08:26:41;;;;;;;3.10;2.53;;;;;;;;;;4965348;28;215780;-72
2022/07/25 08:29:08;;;;;;;3.13;2.60;;;;;;;;;;4961043;28;20252;-73
2022/07/25 08:31:46;;;;;;;4.90;2.77;;;;;;;;;;4942580;28;20219;-73
2022/07/25 08:34:13;;;;;;;3.77;3.00;;;;;;;;;;4911958;28;225482;-73
2022/07/25 08:36:42;;;;;;;3.77;3.00;;;;;;;;;;4964217;28;216113;-72
2022/07/25 08:39:09;;;;;;;2.80;2.50;;;;;;;;;;4970234;28;27386;-72
2022/07/25 08:41:37;;;;;;;4.37;3.20;;;;;;;;;;4966556;28;20232;-72
2022/07/25 08:44:04;;;;;;;3.70;2.93;;;;;;;;;;4981156;28;20339;-73
2022/07/25 08:46:32;;;;;;;4.20;2.57;;;;;;;;;;4969957;28;20228;-73
2022/07/25 08:49:00;;;;;;;2.60;2.40;;;;;;;;;;4971790;28;231646;-72
2022/07/25 08:51:27;;;;;;;3.57;2.70;;;;;;;;;;4975582;28;20230;-72
2022/07/25 08:53:54;;;;;;;3.60;2.50;;;;;;;;;;4981268;28;23352;-73
2022/07/25 08:56:21;;;;;;;5.20;2.93;;;;;;;;;;4970196;28;28499;-71
2022/07/25 08:58:50;;;;;;;4.40;3.00;;;;;;;;;;4985719;28;20928;-68
2022/07/25 09:01:35;;;;;;;6.70;2.83;;;;;;;;;;5009110;28;20234;-73
2022/07/25 09:04:03;;;;;;;5.90;3.23;;;;;;;;;;4936029;28;633415;-69
2022/07/25 09:06:31;;;;;;;5.60;3.00;;;;;;;;;;4690599;28;5087443;-70
2022/07/25 09:09:16;;;;;;;3.27;2.70;;;;;;;;;;4648876;28;5095052;-70
2022/07/25 09:12:15;;;;;;;4.90;2.70;;;;;;;;;;4501141;28;5092577;-69
2022/07/25 09:15:08;;;;;;;3.20;2.90;;;;;;;;;;4912593;28;220323;-73
2022/07/25 09:17:37;;;;;;;4.57;2.60;;;;;;;;;;4971506;28;217931;-74
2022/07/25 09:20:07;;;;;;;4.53;2.90;;;;;;;;;;4985879;28;26175;-79
2022/07/25 09:22:44;;;;;;;3.50;3.20;;;;;;;;;;4972678;28;20221;-76
2022/07/25 09:25:30;;;;;;;6.07;3.00;;;;;;;;;;4989152;28;20228;-72
2022/07/25 09:28:09;;;;;;;7.93;3.30;;;;;;;;;;5006982;28;20239;-67
2022/07/25 09:30:37;;;;;;;4.93;3.03;;;;;;;;;;4981168;28;20257;-66
2022/07/25 09:33:04;;;;;;;6.13;2.83;;;;;;;;;;4934348;28;20302;-75
2022/07/25 09:35:36;;;;;;;5.23;2.83;;;;;;;;;;4952204;28;20300;-73
2022/07/25 09:38:07;;;;;;;5.40;2.70;;;;;;;;;;4924047;28;218918;-74
2022/07/25 09:40:34;;;;;;;3.57;2.90;;;;;;;;;;5010626;28;20234;-71
2022/07/25 09:43:01;;;;;;;4.67;3.20;;;;;;;;;;4997377;28;20625;-73
2022/07/25 09:45:28;;;;;;;4.37;3.13;;;;;;;;;;5005001;28;21443;-71
2022/07/25 09:47:58;;;;;;;4.77;3.20;;;;;;;;;;4976581;28;20226;-72
2022/07/25 09:50:26;;;;;;;5.23;3.23;;;;;;;;;;5001513;28;20237;-72
2022/07/25 09:52:55;;;;;;;4.10;2.83;;;;;;;;;;4987960;28;23447;-72
2022/07/25 09:55:22;;;;;;;5.80;3.53;;;;;;;;;;5002563;28;20246;-68
2022/07/25 09:57:51;;;;;;;5.13;3.20;;;;;;;;;;5009608;28;42307;-73
2022/07/25 10:00:19;;;;;;;4.53;3.17;;;;;;;;;;4955206;28;20317;-71
2022/07/25 10:02:48;;;;;;;4.57;3.37;;;;;;;;;;4959915;28;218537;-69
2022/07/25 10:05:36;;;;;;;4.40;3.10;;;;;;;;;;4947613;28;20713;-71
2022/07/25 10:08:23;;;;;;;3.63;3.23;;;;;;;;;;4942105;28;219456;-72
2022/07/25 10:10:56;;;;;;;4.50;3.30;;;;;;;;;;4933177;28;20281;-71
2022/07/25 10:13:33;;;;;;;4.67;3.00;;;;;;;;;;4883383;28;20243;-72
2022/07/25 10:16:35;;;;;;;4.27;3.37;;;;;;;;;;4797842;28;632969;-68
2022/07/25 10:19:43;;;;;;;4.80;3.30;;;;;;;;;;4920553;28;219473;-74
2022/07/25 10:23:24;;;;;;;4.17;3.20;;;;;;;;;;4954369;28;21487;-73
2022/07/25 10:26:03;;;;;;;3.87;3.33;;;;;;;;;;4985745;28;20361;-73
2022/07/25 10:28:49;;;;;;;3.13;2.83;;;;;;;;;;4945961;28;20238;-71
2022/07/25 10:31:20;;;;;;;4.23;3.50;;;;;;;;;;4922411;28;20239;-73
2022/07/25 10:33:50;;;;;;;4.27;3.33;;;;;;;;;;5006610;28;23181;-72
2022/07/25 10:36:18;;;;;;;3.50;3.13;;;;;;;;;;5009311;28;22521;-70
2022/07/25 10:38:45;;;;;;;3.47;3.00;;;;;;;;;;5008212;28;30814;-68
2022/07/25 10:41:12;;;;;;;3.97;3.10;;;;;;;;;;5008258;28;20700;-74
2022/07/25 10:43:39;;;;;;;4.90;3.50;;;;;;;;;;4998476;28;20291;-71
2022/07/25 10:46:10;;;;;;;3.40;3.10;;;;;;;;;;4926955;28;52052;-70
2022/07/25 10:48:38;;;;;;;3.80;3.27;;;;;;;;;;4812101;28;5091891;-72
2022/07/25 10:51:15;;;;;;;4.20;3.40;;;;;;;;;;4910730;28;264421;-71
2022/07/25 10:58:19;;;;;;;4.17;3.20;;;;;;;;;;4943786;28;20246;-72
2022/07/25 11:00:46;;;;;;;4.53;3.50;;;;;;;;;;4971648;28;20672;-72
2022/07/25 11:03:19;;;;;;;4.23;3.57;;;;;;;;;;4960434;28;260117;-71
2022/07/25 11:05:54;;;;;;;3.83;3.13;;;;;;;;;;4909029;28;793846;-74
2022/07/25 11:08:29;;;;;;;4.60;3.57;;;;;;;;;;4952683;28;21119;-70
2022/07/25 11:10:56;;;;;;;3.70;3.40;;;;;;;;;;4953516;28;26368;-76
2022/07/25 11:13:23;;;;;;;5.20;3.40;;;;;;;;;;4955004;28;23578;-72
2022/07/25 11:15:50;;;;;;;4.93;3.90;;;;;;;;;;4934619;28;220556;-68
2022/07/25 11:18:18;;;;;;;3.67;3.33;;;;;;;;;;5002271;28;20937;-71
2022/07/25 11:20:46;;;;;;;5.13;3.60;;;;;;;;;;4920495;28;20222;-76
2022/07/25 11:23:55;;;;;;;5.30;3.80;;;;;;;;;;4558078;28;5091959;-69
2022/07/25 11:26:51;;;;;;;5.60;3.50;;;;;;;;;;4521817;28;5095197;-70
2022/07/25 11:33:03;;;;;;;4.10;3.30;;;;;;;;;;4818353;28;648766;-66
2022/07/25 11:35:31;;;;;;;6.50;3.60;;;;;;;;;;4885402;28;217703;-68
2022/07/25 11:38:19;;;;;;;5.77;3.60;;;;;;;;;;4838401;28;20454;-71
2022/07/25 11:40:47;;;;;;;6.13;3.83;;;;;;;;;;4944063;28;20231;-69
2022/07/25 11:43:21;;;;;;;4.27;3.50;;;;;;;;;;4988984;28;234567;-68
2022/07/25 11:45:54;;;;;;;4.47;3.77;;;;;;;;;;4985980;28;20231;-68
2022/07/25 11:48:28;;;;;;;4.87;3.50;;;;;;;;;;5006023;28;20254;-67
2022/07/25 11:50:55;;;;;;;5.03;3.70;;;;;;;;;;4958385;28;234702;-66
2022/07/25 11:53:22;;;;;;;3.90;3.47;;;;;;;;;;4998654;28;20794;-67
2022/07/25 11:55:49;;;;;;;6.40;3.50;;;;;;;;;;4985427;28;20261;-66
2022/07/25 11:58:17;;;;;;;6.93;3.40;;;;;;;;;;4960649;28;20231;-67
2022/07/25 12:00:45;;;;;;;4.10;3.70;;;;;;;;;;4953648;28;20330;-67
2022/07/25 12:03:13;;;;;;;5.23;3.53;;;;;;;;;;4988716;28;20235;-65
2022/07/25 12:05:45;;;;;;;4.03;3.60;;;;;;;;;;4992621;28;20308;-64
2022/07/25 12:08:16;;;;;;;3.73;3.43;;;;;;;;;;4990988;28;28387;-65
2022/07/25 12:10:43;;;;;;;5.27;3.33;;;;;;;;;;4973789;28;216298;-64
2022/07/25 12:13:20;;;;;;;5.20;3.30;;;;;;;;;;4987279;28;20227;-65
2022/07/25 12:15:46;;;;;;;7.00;3.50;;;;;;;;;;4986264;28;20230;-66
2022/07/25 12:18:14;;;;;;;4.43;3.20;;;;;;;;;;4984383;28;20231;-67
2022/07/25 12:20:41;;;;;;;4.40;3.60;;;;;;;;;;4981984;28;20682;-65
2022/07/25 12:23:10;;;;;;;4.27;3.20;;;;;;;;;;4974126;28;20235;-68
2022/07/25 12:25:37;;;;;;;4.23;3.23;;;;;;;;;;4986556;28;20314;-66
2022/07/25 12:28:21;;;;;;;5.00;3.30;;;;;;;;;;4977830;28;20337;-68
2022/07/25 12:30:48;;;;;;;6.63;3.37;;;;;;;;;;4979801;28;20216;-67
2022/07/25 12:33:22;;;;;;;3.73;3.20;;;;;;;;;;4994548;28;20289;-68
2022/07/25 12:35:49;;;;;;;3.93;3.30;;;;;;;;;;4982986;28;20233;-66
2022/07/25 12:38:16;;;;;;;3.90;2.97;;;;;;;;;;4979207;28;20598;-67
2022/07/25 12:40:43;;;;;;;4.33;3.30;;;;;;;;;;4980027;28;20235;-67
2022/07/25 12:43:10;;;;;;;3.30;3.00;;;;;;;;;;4978270;28;20232;-67
2022/07/25 12:45:37;;;;;;;4.70;3.20;;;;;;;;;;4985885;28;20223;-68
2022/07/25 12:48:04;;;;;;;5.67;3.20;;;;;;;;;;4979791;28;20265;-68
2022/07/25 12:50:31;;;;;;;3.80;2.93;;;;;;;;;;5006094;28;20233;-67
2022/07/25 12:52:58;;;;;;;5.20;3.00;;;;;;;;;;4979125;28;20231;-67
2022/07/25 12:55:27;;;;;;;5.73;3.07;;;;;;;;;;4992776;28;20235;-68
2022/07/25 12:58:13;;;;;;;5.37;2.80;;;;;;;;;;5002472;28;20692;-68
2022/07/25 13:00:40;;;;;;;3.13;2.70;;;;;;;;;;5000334;28;20238;-70
2022/07/25 13:03:07;;;;;;;4.50;2.87;;;;;;;;;;4979118;28;20246;-69
2022/07/25 13:05:34;;;;;;;3.93;2.83;;;;;;;;;;4995800;28;213652;-70
2022/07/25 13:08:05;;;;;;;5.17;2.63;;;;;;;;;;4985124;28;20232;-69
2022/07/25 13:10:32;;;;;;;4.07;2.80;;;;;;;;;;5005290;28;20314;-66
2022/07/25 13:13:16;;;;;;;5.60;2.93;;;;;;;;;;5004379;28;20245;-72
2022/07/25 13:15:43;;;;;;;3.97;2.87;;;;;;;;;;5017268;28;20226;-72
2022/07/25 13:18:10;;;;;;;4.77;3.33;;;;;;;;;;5009291;28;234527;-67
2022/07/25 13:20:37;;;;;;;4.63;3.00;;;;;;;;;;5035314;28;20229;-68
2022/07/25 13:23:03;;;;;;;4.67;3.13;;;;;;;;;;5041523;28;20314;-69
2022/07/25 13:25:31;;;;;;;4.57;3.17;;;;;;;;;;5040151;28;20589;-68
2022/07/25 13:27:57;;;;;;;4.13;3.00;;;;;;;;;;5042110;28;20222;-67
2022/07/25 13:30:24;;;;;;;5.10;2.90;;;;;;;;;;5040110;28;20308;-68
2022/07/25 13:32:52;;;;;;;3.60;3.00;;;;;;;;;;5042386;28;20305;-68
2022/07/25 13:35:19;;;;;;;5.17;2.90;;;;;;;;;;5039541;28;20317;-68
2022/07/25 13:37:48;;;;;;;3.13;2.80;;;;;;;;;;5039791;28;20318;-69
2022/07/25 13:40:14;;;;;;;3.40;3.10;;;;;;;;;;5042034;28;20232;-67
2022/07/25 13:42:41;;;;;;;4.37;2.97;;;;;;;;;;5039719;28;20230;-68
2022/07/25 13:45:08;;;;;;;4.23;3.17;;;;;;;;;;5041674;28;20322;-67
2022/07/25 13:47:35;;;;;;;5.53;3.17;;;;;;;;;;5039499;28;20658;-68
2022/07/25 13:50:02;;;;;;;5.50;3.50;;;;;;;;;;5041298;28;20237;-67
2022/07/25 13:52:29;;;;;;;3.13;2.80;;;;;;;;;;5023450;28;20617;-69
2022/07/25 13:54:55;;;;;;;5.07;3.00;;;;;;;;;;5041351;28;20770;-67
2022/07/25 13:57:22;;;;;;;3.67;3.33;;;;;;;;;;5038053;28;20233;-67
2022/07/25 13:59:49;;;;;;;4.93;3.00;;;;;;;;;;5007756;28;20280;-67
2022/07/25 14:02:16;;;;;;;4.77;2.90;;;;;;;;;;5039214;28;20367;-67
2022/07/25 14:04:42;;;;;;;5.43;2.90;;;;;;;;;;5041040;28;20222;-68
2022/07/25 14:07:09;;;;;;;5.70;3.00;;;;;;;;;;5039506;28;20604;-67
2022/07/25 14:09:36;;;;;;;4.17;3.10;;;;;;;;;;5040695;28;20295;-67
2022/07/25 14:12:03;;;;;;;4.67;3.17;;;;;;;;;;5039152;28;20214;-68
2022/07/25 14:14:30;;;;;;;6.03;3.07;;;;;;;;;;5041657;28;20313;-66
2022/07/25 14:16:58;;;;;;;3.83;3.27;;;;;;;;;;5038572;28;20237;-67
2022/07/25 14:19:25;;;;;;;6.43;3.27;;;;;;;;;;5041022;28;20229;-67
2022/07/25 14:21:52;;;;;;;7.93;3.40;;;;;;;;;;5039733;28;20287;-67
2022/07/25 14:24:21;;;;;;;5.20;3.40;;;;;;;;;;5021042;28;20613;-67
2022/07/25 14:26:48;;;;;;;4.97;3.30;;;;;;;;;;5040948;28;20297;-67
2022/07/25 14:29:15;;;;;;;4.37;2.90;;;;;;;;;;5022105;28;21049;-67
2022/07/25 14:31:42;;;;;;;3.60;3.03;;;;;;;;;;5040795;28;20683;-66
2022/07/25 14:34:09;;;;;;;3.97;2.97;;;;;;;;;;5038967;28;20233;-67
2022/07/25 14:36:36;;;;;;;4.40;2.60;;;;;;;;;;5041389;28;20320;-67
2022/07/25 14:39:04;;;;;;;4.23;2.80;;;;;;;;;;5039239;28;20696;-67
2022/07/25 14:41:31;;;;;;;3.93;2.70;;;;;;;;;;5039624;28;20315;-72
2022/07/25 14:43:58;;;;;;;3.10;2.70;;;;;;;;;;5040284;28;20240;-67
2022/07/25 14:46:25;;;;;;;4.03;2.47;;;;;;;;;;5029866;28;20335;-67
2022/07/25 14:48:52;;;;;;;4.40;2.67;;;;;;;;;;4980947;28;20275;-70
2022/07/25 14:51:19;;;;;;;3.37;2.40;;;;;;;;;;5020461;28;20248;-67
2022/07/25 14:53:46;;;;;;;3.50;2.60;;;;;;;;;;5033932;28;29527;-67
2022/07/25 14:56:18;;;;;;;7.50;2.73;;;;;;;;;;5029763;28;20626;-67
2022/07/25 14:58:47;;;;;;;5.50;2.60;;;;;;;;;;4984030;28;20230;-68
2022/07/25 15:01:31;;;;;;;4.27;2.30;;;;;;;;;;5009821;28;20232;-66